Time;durP1;ratioP1;P1;durP2;ratioP2;P2;SDS_P1;SDS_P2;PMS_P1;PMS_P2;Temp;Humidity;BMP_temperature;BMP_pressure;BME280_temperature;BME280_humidity;BME280_pressure;Samples;Min_cycle;Max_cycle;Signal;HPM_P1;HPM_P2
2022/08/15 00:01:45;;;;;;;15.48;12.32;;;21.70;99.90;;;;;;5011334;28;20226;-73
2022/08/15 00:04:12;;;;;;;14.63;11.93;;;21.80;99.90;;;;;;5011531;28;20231;-73
2022/08/15 00:06:41;;;;;;;14.90;11.70;;;21.80;99.90;;;;;;5006425;28;20593;-74
2022/08/15 00:09:13;;;;;;;15.32;12.18;;;21.80;99.90;;;;;;5008797;28;20302;-73
2022/08/15 00:11:42;;;;;;;14.50;12.10;;;21.70;99.90;;;;;;5009723;28;20211;-73
2022/08/15 00:14:13;;;;;;;15.93;11.98;;;21.70;99.90;;;;;;5010542;28;20214;-73
2022/08/15 00:16:44;;;;;;;16.73;12.52;;;21.70;99.90;;;;;;5007639;28;20233;-73
2022/08/15 00:19:15;;;;;;;17.00;12.93;;;21.70;99.90;;;;;;5014838;28;20207;-72
2022/08/15 00:21:44;;;;;;;14.63;12.15;;;21.70;99.90;;;;;;5012207;28;20654;-72
2022/08/15 00:24:13;;;;;;;16.95;12.75;;;21.70;99.90;;;;;;5014070;28;20199;-72
2022/08/15 00:26:40;;;;;;;19.15;12.30;;;21.70;99.90;;;;;;5014117;28;20253;-72
2022/08/15 00:29:07;;;;;;;13.88;11.77;;;21.70;99.90;;;;;;5012835;28;20239;-72
2022/08/15 00:31:35;;;;;;;12.52;11.23;;;21.70;99.90;;;;;;5014508;28;20207;-73
2022/08/15 00:34:03;;;;;;;15.57;12.00;;;21.60;99.90;;;;;;5014917;28;20861;-73
2022/08/15 00:36:30;;;;;;;14.45;11.85;;;21.60;99.90;;;;;;5014518;28;20207;-73
2022/08/15 00:38:57;;;;;;;15.32;12.70;;;21.50;99.90;;;;;;5010678;28;20227;-73
2022/08/15 00:41:41;;;;;;;14.60;12.02;;;21.40;99.90;;;;;;5014171;28;20211;-73
2022/08/15 00:44:14;;;;;;;14.07;12.00;;;21.40;99.90;;;;;;5012641;28;20195;-73
2022/08/15 00:46:44;;;;;;;14.43;12.07;;;21.30;99.90;;;;;;5013831;28;20572;-73
2022/08/15 00:49:11;;;;;;;14.60;12.75;;;21.30;99.90;;;;;;5013453;28;20219;-73
2022/08/15 00:51:42;;;;;;;17.50;12.82;;;21.30;99.90;;;;;;5014239;28;20210;-73
2022/08/15 00:54:12;;;;;;;14.07;12.07;;;21.30;99.90;;;;;;5013699;28;20215;-73
2022/08/15 00:56:53;;;;;;;15.73;12.45;;;21.30;99.90;;;;;;5011537;28;20730;-73
2022/08/15 00:59:24;;;;;;;19.67;12.98;;;21.30;99.90;;;;;;5013535;28;20208;-73
2022/08/15 01:01:52;;;;;;;15.98;13.15;;;21.30;99.90;;;;;;5014214;28;20682;-73
2022/08/15 01:04:20;;;;;;;17.10;13.10;;;21.20;99.90;;;;;;5012991;28;20207;-72
2022/08/15 01:06:48;;;;;;;16.55;13.30;;;21.30;99.90;;;;;;5013328;28;20227;-71
2022/08/15 01:09:18;;;;;;;16.65;13.07;;;21.30;99.90;;;;;;5011961;28;20644;-72
2022/08/15 01:11:51;;;;;;;17.48;13.32;;;21.30;99.90;;;;;;5009556;28;20243;-72
2022/08/15 01:14:19;;;;;;;15.90;12.27;;;21.30;99.90;;;;;;5013389;28;20572;-71
2022/08/15 01:16:46;;;;;;;16.83;12.32;;;21.30;99.90;;;;;;5012945;28;20199;-71
2022/08/15 01:19:17;;;;;;;15.75;12.80;;;21.20;99.90;;;;;;5013159;28;20206;-72
2022/08/15 01:22:00;;;;;;;16.90;12.70;;;21.30;99.90;;;;;;5013576;28;20263;-72
2022/08/15 01:24:40;;;;;;;15.25;12.45;;;21.30;99.90;;;;;;5011320;28;20427;-72
2022/08/15 01:27:07;;;;;;;16.65;12.93;;;21.30;99.90;;;;;;5010318;28;20219;-73
2022/08/15 01:29:34;;;;;;;19.95;13.20;;;21.20;99.90;;;;;;5009088;28;20464;-73
2022/08/15 01:32:01;;;;;;;15.52;13.23;;;21.20;99.90;;;;;;5013389;28;20207;-73
2022/08/15 01:34:27;;;;;;;14.52;12.80;;;21.30;99.90;;;;;;5012951;28;20265;-73
2022/08/15 01:36:54;;;;;;;17.95;13.55;;;21.20;99.90;;;;;;5012051;28;20208;-73
2022/08/15 01:39:28;;;;;;;15.00;12.88;;;21.20;99.90;;;;;;5010868;28;20219;-72
2022/08/15 01:42:03;;;;;;;14.93;13.38;;;21.20;99.90;;;;;;5013129;28;20209;-73
2022/08/15 01:44:35;;;;;;;17.23;13.48;;;21.20;99.90;;;;;;5011959;28;20203;-72
2022/08/15 01:47:11;;;;;;;17.02;12.45;;;21.10;99.90;;;;;;5011176;28;20219;-72
2022/08/15 01:49:46;;;;;;;14.68;12.70;;;21.20;99.90;;;;;;5007265;28;20211;-73
2022/08/15 01:52:14;;;;;;;16.77;13.00;;;21.10;99.90;;;;;;5013216;28;20203;-72
2022/08/15 01:54:41;;;;;;;17.77;13.20;;;21.10;99.90;;;;;;5012252;28;20214;-72
2022/08/15 01:57:11;;;;;;;15.32;13.10;;;21.20;99.90;;;;;;5012178;28;20334;-73
2022/08/15 01:59:38;;;;;;;14.52;12.98;;;21.10;99.90;;;;;;5009703;28;20211;-72
2022/08/15 02:02:07;;;;;;;18.92;13.73;;;21.10;99.90;;;;;;5012837;28;20218;-73
2022/08/15 02:04:36;;;;;;;15.07;13.57;;;21.10;99.90;;;;;;5012686;28;20211;-73
2022/08/15 02:07:08;;;;;;;15.75;13.63;;;21.10;99.90;;;;;;5012749;28;20234;-73
2022/08/15 02:09:36;;;;;;;15.00;13.50;;;21.10;99.90;;;;;;5011823;28;20211;-73
2022/08/15 02:12:08;;;;;;;17.70;12.38;;;21.10;99.90;;;;;;5011821;28;20214;-72
2022/08/15 02:14:41;;;;;;;14.45;12.65;;;21.10;99.90;;;;;;5010320;28;20238;-72
2022/08/15 02:17:08;;;;;;;16.52;12.48;;;21.10;99.90;;;;;;5011353;28;20203;-73
2022/08/15 02:19:36;;;;;;;14.98;13.25;;;21.10;99.90;;;;;;5012033;28;20233;-72
2022/08/15 02:22:05;;;;;;;14.57;13.05;;;21.10;99.90;;;;;;5011915;28;20235;-73
2022/08/15 02:24:32;;;;;;;15.07;13.48;;;21.10;99.90;;;;;;5011607;28;20211;-73
2022/08/15 02:26:59;;;;;;;14.52;13.10;;;21.10;99.90;;;;;;5011537;28;20226;-74
2022/08/15 02:29:28;;;;;;;15.07;13.57;;;21.10;99.90;;;;;;5012068;28;20211;-73
2022/08/15 02:32:01;;;;;;;15.65;12.90;;;21.10;99.90;;;;;;5012121;28;20207;-74
2022/08/15 02:34:28;;;;;;;15.60;13.93;;;21.10;99.90;;;;;;5011390;28;20204;-74
2022/08/15 02:36:55;;;;;;;16.00;13.68;;;21.10;99.90;;;;;;5011988;28;20234;-74
2022/08/15 02:39:23;;;;;;;20.55;13.98;;;21.00;99.90;;;;;;5010082;28;20238;-73
2022/08/15 02:41:51;;;;;;;16.73;13.73;;;21.00;99.90;;;;;;5011674;28;20215;-73
2022/08/15 02:44:21;;;;;;;16.35;13.55;;;21.00;99.90;;;;;;5011538;28;20211;-73
2022/08/15 02:46:49;;;;;;;14.95;13.45;;;21.00;99.90;;;;;;5010539;28;20492;-73
2022/08/15 02:49:18;;;;;;;18.85;13.02;;;21.00;99.90;;;;;;5010947;28;20210;-73
2022/08/15 02:51:48;;;;;;;15.25;13.32;;;21.00;99.90;;;;;;5012185;28;20203;-73
2022/08/15 02:54:17;;;;;;;18.08;13.15;;;20.90;99.90;;;;;;5011061;28;20212;-73
2022/08/15 02:56:45;;;;;;;15.55;13.20;;;20.90;99.90;;;;;;5011349;28;20238;-73
2022/08/15 02:59:12;;;;;;;17.63;14.25;;;20.90;99.90;;;;;;5010875;28;20664;-72
2022/08/15 03:01:42;;;;;;;15.95;13.68;;;20.90;99.90;;;;;;5011204;28;20215;-72
2022/08/15 03:04:12;;;;;;;15.65;14.05;;;20.80;99.90;;;;;;5011934;28;20203;-72
2022/08/15 03:06:44;;;;;;;15.15;13.23;;;20.90;99.90;;;;;;5010789;28;20689;-72
2022/08/15 03:09:12;;;;;;;15.63;14.07;;;20.80;99.90;;;;;;5008474;28;20334;-72
2022/08/15 03:11:42;;;;;;;16.52;13.93;;;20.80;99.90;;;;;;5011369;28;20211;-75
2022/08/15 03:14:12;;;;;;;15.43;13.48;;;20.80;99.90;;;;;;5011142;28;20676;-74
2022/08/15 03:16:43;;;;;;;14.63;13.13;;;20.70;99.90;;;;;;5006944;28;20210;-73
2022/08/15 03:19:11;;;;;;;16.15;14.50;;;20.70;99.90;;;;;;5009426;28;20203;-73
2022/08/15 03:21:38;;;;;;;15.05;13.45;;;20.70;99.90;;;;;;5010777;28;20224;-73
2022/08/15 03:24:07;;;;;;;15.13;13.63;;;20.80;99.90;;;;;;5009120;28;20209;-72
2022/08/15 03:26:34;;;;;;;15.68;13.48;;;20.80;99.90;;;;;;5001669;28;20340;-74
2022/08/15 03:29:02;;;;;;;13.60;12.20;;;20.70;99.90;;;;;;5003876;28;20210;-73
2022/08/15 03:31:29;;;;;;;15.13;13.52;;;20.70;99.90;;;;;;5007673;28;20222;-73
2022/08/15 03:33:56;;;;;;;15.13;13.55;;;20.70;99.90;;;;;;5006320;28;20210;-73
2022/08/15 03:36:24;;;;;;;16.38;13.65;;;20.70;99.90;;;;;;5003125;28;20327;-73
2022/08/15 03:38:52;;;;;;;15.77;13.20;;;20.80;99.90;;;;;;5003826;28;20245;-74
2022/08/15 03:41:21;;;;;;;13.80;12.45;;;20.70;99.90;;;;;;5008402;28;20229;-73
2022/08/15 03:43:48;;;;;;;15.27;13.50;;;20.70;99.90;;;;;;5007491;28;20234;-73
2022/08/15 03:46:18;;;;;;;14.57;13.18;;;20.70;99.90;;;;;;5007952;28;20219;-73
2022/08/15 03:48:47;;;;;;;15.13;12.50;;;20.80;99.90;;;;;;5009832;28;20727;-73
2022/08/15 03:51:15;;;;;;;16.10;13.50;;;20.80;99.90;;;;;;5003531;28;20219;-73
2022/08/15 03:53:44;;;;;;;14.60;12.85;;;20.80;99.90;;;;;;4997477;28;20237;-73
2022/08/15 03:56:14;;;;;;;15.57;12.40;;;20.80;99.90;;;;;;5002343;28;20223;-73
2022/08/15 03:58:43;;;;;;;14.68;13.07;;;20.80;99.90;;;;;;5010991;28;20203;-74
2022/08/15 04:01:13;;;;;;;15.20;13.05;;;20.90;99.90;;;;;;5010205;28;20259;-73
2022/08/15 04:03:40;;;;;;;14.82;13.07;;;20.90;99.90;;;;;;5010290;28;20207;-73
2022/08/15 04:06:10;;;;;;;14.20;12.50;;;21.00;99.90;;;;;;5001819;28;20211;-74
2022/08/15 04:08:37;;;;;;;14.43;12.57;;;20.90;99.90;;;;;;5008265;28;20224;-74
2022/08/15 04:11:06;;;;;;;14.10;12.65;;;20.90;99.90;;;;;;5009359;28;20212;-73
2022/08/15 04:13:35;;;;;;;15.73;12.27;;;20.90;99.90;;;;;;5009955;28;20913;-72
2022/08/15 04:16:04;;;;;;;13.70;12.13;;;20.90;99.90;;;;;;5009650;28;20278;-73
2022/08/15 04:18:31;;;;;;;15.85;12.48;;;20.90;99.90;;;;;;5010460;28;20222;-73
2022/08/15 04:20:59;;;;;;;13.70;12.27;;;21.00;99.90;;;;;;5008556;28;20302;-73
2022/08/15 04:23:27;;;;;;;15.50;13.38;;;21.00;99.90;;;;;;5008621;28;20235;-73
2022/08/15 04:25:54;;;;;;;14.30;12.80;;;21.00;99.90;;;;;;5010681;28;20207;-72
2022/08/15 04:28:23;;;;;;;12.68;11.45;;;21.10;99.90;;;;;;5008873;28;20223;-73
2022/08/15 04:30:50;;;;;;;14.20;12.80;;;21.10;99.90;;;;;;5010612;28;20205;-73
2022/08/15 04:33:20;;;;;;;14.20;12.45;;;21.20;99.90;;;;;;5007568;28;20211;-74
2022/08/15 04:35:51;;;;;;;14.63;12.32;;;21.20;99.90;;;;;;5009510;28;20226;-73
2022/08/15 04:38:18;;;;;;;13.68;12.25;;;21.20;99.90;;;;;;5009961;28;20206;-73
2022/08/15 04:40:46;;;;;;;14.43;12.75;;;21.30;99.90;;;;;;5010143;28;20211;-74
2022/08/15 04:43:13;;;;;;;13.43;12.05;;;21.30;99.90;;;;;;5010626;28;20605;-74
2022/08/15 04:45:41;;;;;;;12.80;11.57;;;21.40;99.90;;;;;;5008294;28;20234;-74
2022/08/15 04:48:14;;;;;;;14.25;12.07;;;21.50;99.90;;;;;;5009666;28;20227;-73
2022/08/15 04:50:44;;;;;;;13.77;12.38;;;21.50;99.90;;;;;;5010729;28;20242;-74
2022/08/15 04:53:11;;;;;;;12.63;11.32;;;21.50;99.90;;;;;;5008247;28;20344;-74
2022/08/15 04:55:41;;;;;;;13.90;12.15;;;21.60;99.90;;;;;;5009835;28;20211;-73
2022/08/15 04:58:09;;;;;;;14.63;11.95;;;21.70;99.90;;;;;;5009972;28;20235;-73
2022/08/15 05:00:37;;;;;;;16.10;12.20;;;21.70;99.90;;;;;;5009757;28;20227;-74
2022/08/15 05:03:06;;;;;;;14.32;11.90;;;21.70;99.90;;;;;;5009936;28;20209;-73
2022/08/15 05:05:36;;;;;;;14.98;11.32;;;21.80;99.90;;;;;;5013610;28;20704;-74
2022/08/15 05:08:04;;;;;;;12.15;10.95;;;21.90;99.90;;;;;;5014149;28;20237;-74
2022/08/15 05:10:32;;;;;;;13.23;11.82;;;22.00;99.90;;;;;;5013289;28;20222;-74
2022/08/15 05:13:08;;;;;;;13.13;11.00;;;22.00;99.90;;;;;;5013863;28;20688;-74
2022/08/15 05:15:35;;;;;;;16.27;10.68;;;22.10;99.90;;;;;;5009159;28;20229;-72
2022/08/15 05:18:01;;;;;;;17.23;12.55;;;22.10;99.90;;;;;;5012842;28;20290;-72
2022/08/15 05:20:28;;;;;;;14.30;12.07;;;22.20;99.90;;;;;;5011922;28;20211;-72
2022/08/15 05:22:58;;;;;;;11.40;10.30;;;22.30;99.90;;;;;;5012612;28;20238;-70
2022/08/15 05:25:26;;;;;;;12.77;11.52;;;22.30;99.90;;;;;;5013120;28;20207;-69
2022/08/15 05:27:53;;;;;;;14.15;11.80;;;22.30;99.90;;;;;;5013060;28;20235;-69
2022/08/15 05:30:20;;;;;;;12.35;10.77;;;22.40;99.90;;;;;;5011191;28;20226;-71
2022/08/15 05:32:47;;;;;;;13.52;11.07;;;22.30;99.90;;;;;;5011113;28;20265;-70
2022/08/15 05:35:15;;;;;;;12.73;11.43;;;22.40;99.90;;;;;;5012477;28;20762;-69
2022/08/15 05:37:44;;;;;;;12.20;10.98;;;22.50;99.90;;;;;;5013384;28;20504;-73
2022/08/15 05:40:11;;;;;;;14.75;11.45;;;22.50;99.90;;;;;;5012214;28;20583;-73
2022/08/15 05:42:49;;;;;;;12.88;11.10;;;22.60;99.90;;;;;;5012848;28;20688;-73
2022/08/15 05:45:26;;;;;;;11.88;10.68;;;22.60;99.90;;;;;;5006749;28;20203;-74
2022/08/15 05:48:05;;;;;;;11.90;10.68;;;22.70;99.90;;;;;;5012539;28;20224;-71
2022/08/15 05:50:37;;;;;;;11.68;10.50;;;22.70;99.90;;;;;;5000765;28;20672;-72
2022/08/15 05:53:13;;;;;;;12.15;10.95;;;22.70;99.90;;;;;;5007371;28;20211;-74
2022/08/15 05:55:46;;;;;;;12.88;10.95;;;22.70;99.90;;;;;;5013048;28;20218;-74
2022/08/15 05:58:30;;;;;;;14.07;12.65;;;22.70;99.90;;;;;;5012458;28;20226;-72
2022/08/15 06:01:04;;;;;;;14.23;11.40;;;22.70;99.90;;;;;;5014255;28;20210;-73
2022/08/15 06:03:34;;;;;;;12.68;11.38;;;22.70;99.90;;;;;;5013926;28;20241;-73
2022/08/15 06:06:06;;;;;;;12.93;11.63;;;22.70;99.90;;;;;;5011445;28;20218;-72
2022/08/15 06:08:37;;;;;;;14.77;11.05;;;22.80;99.90;;;;;;5013693;28;20219;-72
2022/08/15 06:11:11;;;;;;;13.52;11.85;;;22.90;99.90;;;;;;5013906;28;20234;-72
2022/08/15 06:13:44;;;;;;;12.15;10.95;;;23.00;99.90;;;;;;5011412;28;20261;-72
2022/08/15 06:16:17;;;;;;;15.05;10.90;;;23.10;99.90;;;;;;5011281;28;20435;-74
2022/08/15 06:18:46;;;;;;;15.18;11.15;;;23.20;99.90;;;;;;5012748;28;20231;-73
2022/08/15 06:21:24;;;;;;;12.00;10.90;;;23.30;99.90;;;;;;5006931;28;20327;-73
2022/08/15 06:24:01;;;;;;;12.93;11.63;;;23.40;99.90;;;;;;5012061;28;20223;-70
2022/08/15 06:26:38;;;;;;;12.07;10.73;;;23.50;99.90;;;;;;5012650;28;20546;-70
2022/08/15 06:29:20;;;;;;;16.17;11.85;;;23.50;99.90;;;;;;5012720;28;20579;-71
2022/08/15 06:31:54;;;;;;;12.75;11.27;;;23.60;99.90;;;;;;5013952;28;20598;-71
2022/08/15 06:34:33;;;;;;;13.93;11.52;;;23.70;99.90;;;;;;5013478;28;20238;-73
2022/08/15 06:37:07;;;;;;;14.93;10.65;;;23.70;99.90;;;;;;5010227;28;20660;-70
2022/08/15 06:39:41;;;;;;;12.10;10.60;;;23.80;99.90;;;;;;5004636;28;20247;-71
2022/08/15 06:42:17;;;;;;;13.38;11.90;;;23.80;99.90;;;;;;5011500;28;21250;-72
2022/08/15 06:44:49;;;;;;;13.98;11.90;;;23.90;99.90;;;;;;5012482;28;20199;-72
2022/08/15 06:47:17;;;;;;;13.52;12.07;;;23.90;99.90;;;;;;5006844;28;20207;-73
2022/08/15 06:49:54;;;;;;;13.27;11.93;;;24.00;99.90;;;;;;5004992;28;20231;-72
2022/08/15 06:52:22;;;;;;;13.05;11.85;;;24.10;99.90;;;;;;5005000;28;20207;-71
2022/08/15 06:54:49;;;;;;;15.77;12.40;;;24.20;99.90;;;;;;5006908;28;20311;-72
2022/08/15 06:57:21;;;;;;;12.98;11.35;;;24.30;99.90;;;;;;5006953;28;20778;-70
2022/08/15 07:00:00;;;;;;;12.32;10.85;;;24.40;99.90;;;;;;5005361;28;20204;-71
2022/08/15 07:02:47;;;;;;;15.15;12.27;;;24.30;99.90;;;;;;5010638;28;20266;-71
2022/08/15 07:05:18;;;;;;;12.77;11.48;;;24.30;99.90;;;;;;5009456;28;20598;-72
2022/08/15 07:07:49;;;;;;;13.13;11.70;;;24.50;99.90;;;;;;5009799;28;20199;-73
2022/08/15 07:10:24;;;;;;;12.05;10.95;;;24.60;99.90;;;;;;5009858;28;20207;-73
2022/08/15 07:12:57;;;;;;;14.30;12.48;;;24.80;99.90;;;;;;5011339;28;20635;-73
2022/08/15 07:15:36;;;;;;;15.18;12.18;;;25.00;99.90;;;;;;5007008;28;20296;-72
2022/08/15 07:18:07;;;;;;;13.13;11.65;;;25.00;99.90;;;;;;5009598;28;20249;-74
2022/08/15 07:20:34;;;;;;;15.52;11.93;;;25.10;99.90;;;;;;5010761;28;20556;-73
2022/08/15 07:23:15;;;;;;;13.07;11.68;;;25.20;99.90;;;;;;5012202;28;20663;-73
2022/08/15 07:25:46;;;;;;;12.40;11.20;;;25.30;99.90;;;;;;5010933;28;20203;-74
2022/08/15 07:28:16;;;;;;;12.95;11.30;;;25.30;99.90;;;;;;5010032;28;20589;-72
2022/08/15 07:30:48;;;;;;;13.95;11.32;;;25.30;99.90;;;;;;5005758;28;20281;-73
2022/08/15 07:33:32;;;;;;;12.93;11.45;;;25.30;99.90;;;;;;5007677;28;20678;-71
2022/08/15 07:36:03;;;;;;;17.95;11.88;;;25.20;99.90;;;;;;5009062;28;20207;-73
2022/08/15 07:38:32;;;;;;;12.80;11.20;;;25.10;99.90;;;;;;5010796;28;20204;-72
2022/08/15 07:41:18;;;;;;;12.05;10.85;;;25.10;99.90;;;;;;5007783;28;20529;-70
2022/08/15 07:43:46;;;;;;;15.00;11.80;;;25.00;99.90;;;;;;5009254;28;20257;-68
2022/08/15 07:46:18;;;;;;;12.13;10.93;;;25.10;99.90;;;;;;5007139;28;20682;-72
2022/08/15 07:48:56;;;;;;;13.90;10.88;;;25.20;99.90;;;;;;5010120;28;20580;-71
2022/08/15 07:51:27;;;;;;;13.23;10.90;;;25.30;99.90;;;;;;5010996;28;20211;-70
2022/08/15 07:53:56;;;;;;;12.63;11.30;;;25.40;99.90;;;;;;5010268;28;20273;-67
2022/08/15 07:56:25;;;;;;;12.77;10.90;;;25.50;99.90;;;;;;5009825;28;20251;-72
2022/08/15 07:58:55;;;;;;;12.15;10.70;;;25.50;99.90;;;;;;5013081;28;20198;-70
2022/08/15 08:01:25;;;;;;;12.02;10.38;;;25.40;99.90;;;;;;5009283;28;20618;-73
2022/08/15 08:03:58;;;;;;;12.48;11.38;;;25.30;99.90;;;;;;5007470;28;20199;-72
2022/08/15 08:06:31;;;;;;;13.35;11.93;;;25.30;99.90;;;;;;5010561;28;20555;-69
2022/08/15 08:09:07;;;;;;;17.05;11.68;;;25.20;99.90;;;;;;4998702;28;20222;-70
2022/08/15 08:11:44;;;;;;;11.82;10.68;;;25.10;99.90;;;;;;5009207;28;20550;-70
2022/08/15 08:14:18;;;;;;;15.15;11.20;;;25.10;99.90;;;;;;5011521;28;20203;-70
2022/08/15 08:16:51;;;;;;;12.23;10.90;;;25.20;99.90;;;;;;5008817;28;20218;-69
2022/08/15 08:19:29;;;;;;;13.30;11.32;;;25.20;99.90;;;;;;5011948;28;20202;-71
2022/08/15 08:22:09;;;;;;;12.57;11.38;;;25.30;99.90;;;;;;5012147;28;20254;-69
2022/08/15 08:24:49;;;;;;;13.07;11.25;;;25.50;99.90;;;;;;5009734;28;20207;-70
2022/08/15 08:27:26;;;;;;;14.60;11.40;;;25.60;99.90;;;;;;5008214;28;20543;-70
2022/08/15 08:30:03;;;;;;;10.75;9.75;;;25.80;99.90;;;;;;5009762;28;20226;-69
2022/08/15 08:32:39;;;;;;;19.90;10.80;;;25.90;99.90;;;;;;5008818;28;20286;-70
2022/08/15 08:35:14;;;;;;;14.48;10.55;;;25.90;99.90;;;;;;5005425;28;20641;-69
2022/08/15 08:37:48;;;;;;;11.82;10.68;;;25.90;99.90;;;;;;5012825;28;20202;-72
2022/08/15 08:43:21;;;;;;;14.68;11.35;;;26.00;99.90;;;;;;5010333;28;20206;-72
2022/08/15 08:45:54;;;;;;;14.68;10.73;;;26.00;99.90;;;;;;5009012;28;20675;-69
2022/08/15 08:48:41;;;;;;;13.10;10.05;;;26.00;99.90;;;;;;5011688;28;20231;-70
2022/08/15 08:51:21;;;;;;;11.32;10.13;;;26.00;99.90;;;;;;5005871;28;20671;-71
2022/08/15 08:53:57;;;;;;;11.45;10.23;;;25.90;99.90;;;;;;5012485;28;20203;-71
2022/08/15 08:56:27;;;;;;;11.95;10.85;;;25.90;99.90;;;;;;5011746;28;20247;-71
2022/08/15 08:59:02;;;;;;;11.88;10.65;;;25.80;99.90;;;;;;5011166;28;20203;-70
2022/08/15 09:01:31;;;;;;;13.43;11.15;;;25.90;99.90;;;;;;5008525;28;20668;-69
2022/08/15 09:04:04;;;;;;;13.43;10.65;;;25.80;99.90;;;;;;5011733;28;20211;-70
2022/08/15 09:06:38;;;;;;;12.23;10.38;;;25.80;99.90;;;;;;5009949;28;20250;-69
2022/08/15 09:09:08;;;;;;;11.90;10.73;;;25.80;99.90;;;;;;5009829;28;20225;-69
2022/08/15 09:11:41;;;;;;;11.07;9.75;;;25.80;99.90;;;;;;5012646;28;20215;-69
2022/08/15 09:14:17;;;;;;;12.55;11.25;;;25.90;99.90;;;;;;5011960;28;20203;-70
2022/08/15 09:16:45;;;;;;;14.48;11.10;;;26.00;99.90;;;;;;5019039;28;20276;-74
2022/08/15 09:19:20;;;;;;;11.50;10.23;;;26.30;99.90;;;;;;5012179;28;20195;-73
2022/08/15 09:21:47;;;;;;;11.13;9.68;;;26.60;99.90;;;;;;5010617;28;20782;-72
2022/08/15 09:24:17;;;;;;;11.15;10.15;;;27.10;99.90;;;;;;5003775;28;20207;-74
2022/08/15 09:26:52;;;;;;;13.60;11.63;;;27.50;99.90;;;;;;5006944;28;20218;-74
2022/08/15 09:29:25;;;;;;;10.02;8.98;;;27.80;99.90;;;;;;5011218;28;20234;-75
2022/08/15 09:32:09;;;;;;;10.40;8.88;;;28.10;99.90;;;;;;5003076;28;20211;-74
2022/08/15 09:34:55;;;;;;;11.02;9.73;;;28.30;99.90;;;;;;4996415;28;20301;-73
2022/08/15 09:37:34;;;;;;;10.02;9.02;;;28.60;99.90;;;;;;4996958;28;20204;-74
2022/08/15 09:40:26;;;;;;;12.10;9.55;;;29.00;99.90;;;;;;5011516;28;20206;-73
2022/08/15 09:43:16;;;;;;;13.48;8.70;;;29.30;99.90;;;;;;5007051;28;20567;-73
2022/08/15 09:45:56;;;;;;;10.27;9.25;;;29.40;99.90;;;;;;5007540;28;20561;-73
2022/08/15 09:48:42;;;;;;;9.63;8.68;;;29.30;99.90;;;;;;5010245;28;20261;-73
2022/08/15 09:51:28;;;;;;;9.20;8.40;;;29.20;99.90;;;;;;5013594;28;20621;-73
2022/08/15 09:54:07;;;;;;;9.55;8.60;;;29.00;99.90;;;;;;5007064;28;20632;-73
2022/08/15 09:56:37;;;;;;;10.93;8.23;;;28.70;99.90;;;;;;5005561;28;20255;-73
2022/08/15 09:59:09;;;;;;;9.80;8.80;;;28.60;99.90;;;;;;5006854;28;20199;-73
2022/08/15 10:01:44;;;;;;;11.27;9.07;;;28.60;99.90;;;;;;5012472;28;20620;-73
2022/08/15 10:04:13;;;;;;;9.77;8.68;;;28.50;99.90;;;;;;5007492;28;20203;-74
2022/08/15 10:06:58;;;;;;;11.32;9.27;;;28.50;99.90;;;;;;5013641;28;20219;-73
2022/08/15 10:09:34;;;;;;;9.90;8.93;;;28.40;99.90;;;;;;5004393;28;20216;-74
2022/08/15 10:12:22;;;;;;;10.23;8.95;;;28.60;99.90;;;;;;5008627;28;20225;-73
2022/08/15 10:15:01;;;;;;;9.70;8.70;;;28.90;99.90;;;;;;5012045;28;20207;-73
2022/08/15 10:17:42;;;;;;;9.02;8.13;;;29.10;99.90;;;;;;5011890;28;20218;-73
2022/08/15 10:20:46;;;;;;;13.55;9.77;;;29.30;99.90;;;;;;5012871;28;20597;-73
2022/08/15 10:23:15;;;;;;;10.93;8.95;;;29.30;99.90;;;;;;5010193;28;20230;-73
2022/08/15 10:25:45;;;;;;;11.27;8.95;;;29.50;99.90;;;;;;5013392;28;20561;-74
2022/08/15 10:28:23;;;;;;;9.60;8.75;;;29.60;99.90;;;;;;5013003;28;20207;-74
2022/08/15 10:31:25;;;;;;;9.95;8.90;;;29.60;99.90;;;;;;5009496;28;20219;-74
2022/08/15 10:33:53;;;;;;;9.55;8.55;;;29.60;99.90;;;;;;5007307;28;20265;-73
2022/08/15 10:36:26;;;;;;;11.75;9.10;;;29.70;99.90;;;;;;5012140;28;20215;-72
2022/08/15 10:39:13;;;;;;;10.57;9.32;;;29.90;99.90;;;;;;5011976;28;20231;-72
2022/08/15 10:41:56;;;;;;;12.23;8.40;;;30.20;99.90;;;;;;5012326;28;20218;-73
2022/08/15 10:44:32;;;;;;;10.77;8.75;;;30.70;99.90;;;;;;5012555;28;20277;-72
2022/08/15 10:47:13;;;;;;;9.60;8.20;;;31.10;99.90;;;;;;5005675;28;20225;-72
2022/08/15 10:49:50;;;;;;;10.75;8.57;;;31.30;99.90;;;;;;5011556;28;20314;-73
2022/08/15 10:52:32;;;;;;;10.45;9.02;;;31.40;99.90;;;;;;5012142;28;20203;-73
2022/08/15 10:55:24;;;;;;;10.55;8.93;;;31.50;99.90;;;;;;5012184;28;20559;-74
2022/08/15 10:57:53;;;;;;;8.88;7.93;;;31.40;99.90;;;;;;5011115;28;20602;-73
2022/08/15 11:00:41;;;;;;;9.65;8.75;;;31.30;99.90;;;;;;5010528;28;20208;-72
2022/08/15 11:03:18;;;;;;;9.70;8.02;;;31.10;99.90;;;;;;5008581;28;20443;-73
2022/08/15 11:05:53;;;;;;;9.32;8.43;;;30.90;99.90;;;;;;5010578;28;20211;-72
2022/08/15 11:08:20;;;;;;;10.90;8.80;;;30.80;99.90;;;;;;5008587;28;20622;-73
2022/08/15 11:10:50;;;;;;;10.70;8.80;;;30.40;99.90;;;;;;5011929;28;20230;-73
2022/08/15 11:13:23;;;;;;;10.20;8.45;;;30.10;99.90;;;;;;5009825;28;20597;-73
2022/08/15 11:15:54;;;;;;;13.60;8.60;;;29.70;99.90;;;;;;4998487;28;20207;-73
2022/08/15 11:18:28;;;;;;;9.07;8.18;;;29.40;99.90;;;;;;5012076;28;20736;-72
2022/08/15 11:21:01;;;;;;;12.80;9.73;;;29.10;99.90;;;;;;5010697;28;20203;-73
2022/08/15 11:23:34;;;;;;;11.40;9.73;;;29.00;99.90;;;;;;5006880;28;20306;-73
2022/08/15 11:26:04;;;;;;;10.23;8.88;;;28.90;99.90;;;;;;5011208;28;20207;-73
2022/08/15 11:28:31;;;;;;;11.00;9.15;;;29.00;99.90;;;;;;5011184;28;20324;-73
2022/08/15 11:31:04;;;;;;;10.88;8.23;;;29.20;99.90;;;;;;5011005;28;20265;-73
2022/08/15 11:33:40;;;;;;;10.05;8.88;;;29.30;99.90;;;;;;5011831;28;20199;-73
2022/08/15 11:36:10;;;;;;;12.18;8.35;;;29.50;99.90;;;;;;5012128;28;20250;-73
2022/08/15 11:38:41;;;;;;;10.20;9.15;;;29.70;99.90;;;;;;5007686;28;20211;-73
2022/08/15 11:41:10;;;;;;;11.15;8.65;;;29.90;99.90;;;;;;5009801;28;20199;-72
2022/08/15 11:43:40;;;;;;;12.30;8.82;;;29.90;99.90;;;;;;5012914;28;20573;-73
2022/08/15 11:46:07;;;;;;;9.27;8.32;;;30.20;99.90;;;;;;5012528;28;20211;-74
2022/08/15 11:48:38;;;;;;;14.43;8.60;;;30.80;99.90;;;;;;5000012;28;20211;-74
2022/08/15 11:51:09;;;;;;;9.88;7.75;;;31.30;99.90;;;;;;5011678;28;20731;-73
2022/08/15 11:53:39;;;;;;;8.68;7.85;;;31.60;99.90;;;;;;5012369;28;20591;-73
2022/08/15 11:56:06;;;;;;;10.50;7.85;;;31.50;99.90;;;;;;5012601;28;20215;-73
2022/08/15 11:58:38;;;;;;;9.32;7.10;;;31.30;99.90;;;;;;5012903;28;20660;-72
2022/08/15 12:01:23;;;;;;;9.95;6.82;;;31.20;99.90;;;;;;5012077;28;20215;-72
2022/08/15 12:04:01;;;;;;;8.30;7.50;;;31.00;99.80;;;;;;5010832;28;20207;-73
2022/08/15 12:06:30;;;;;;;10.60;6.75;;;30.70;99.70;;;;;;5010213;28;20635;-73
2022/08/15 12:09:10;;;;;;;10.45;7.13;;;30.60;99.70;;;;;;5008786;28;20565;-73
2022/08/15 12:11:42;;;;;;;8.30;7.13;;;30.40;99.80;;;;;;5006924;28;20203;-73
2022/08/15 12:14:21;;;;;;;10.07;7.45;;;30.30;99.90;;;;;;5015549;28;20229;-73
2022/08/15 12:16:51;;;;;;;10.07;7.10;;;30.20;99.90;;;;;;5014601;28;20278;-73
2022/08/15 12:19:40;;;;;;;11.48;7.35;;;30.10;99.90;;;;;;5015500;28;20204;-73
2022/08/15 12:22:14;;;;;;;7.95;6.90;;;30.00;99.90;;;;;;5015087;28;20555;-73
2022/08/15 12:24:43;;;;;;;8.95;7.47;;;29.90;99.90;;;;;;5014137;28;20203;-73
2022/08/15 12:27:10;;;;;;;8.55;7.53;;;29.70;99.90;;;;;;5012580;28;20206;-73
2022/08/15 12:29:39;;;;;;;8.25;7.15;;;29.60;99.90;;;;;;5015207;28;20227;-73
2022/08/15 12:32:10;;;;;;;8.75;7.32;;;29.60;99.90;;;;;;5014968;28;20215;-72
2022/08/15 12:34:39;;;;;;;11.80;7.63;;;29.60;99.90;;;;;;5012982;28;20564;-73
2022/08/15 12:37:08;;;;;;;9.43;7.10;;;29.70;99.90;;;;;;5012454;28;20215;-73
2022/08/15 12:39:38;;;;;;;12.75;7.45;;;29.60;99.90;;;;;;5015431;28;20203;-73
2022/08/15 12:42:05;;;;;;;9.25;8.25;;;29.60;99.90;;;;;;5015830;28;20468;-73
2022/08/15 12:44:36;;;;;;;8.63;7.07;;;29.70;99.90;;;;;;5014024;28;20554;-72
2022/08/15 12:47:07;;;;;;;8.30;7.50;;;29.60;99.90;;;;;;5016703;28;20199;-73
2022/08/15 12:49:34;;;;;;;9.70;7.68;;;29.60;99.90;;;;;;5015979;28;20503;-72
2022/08/15 12:52:01;;;;;;;10.07;7.63;;;29.50;99.90;;;;;;5014997;28;20200;-73
2022/08/15 12:54:28;;;;;;;9.77;7.15;;;29.60;99.90;;;;;;5014126;28;20211;-73
2022/08/15 12:56:55;;;;;;;8.40;6.63;;;29.60;99.90;;;;;;5014229;28;20573;-73
2022/08/15 12:59:22;;;;;;;11.63;6.88;;;29.50;99.90;;;;;;5009776;28;20629;-73